sensor_id;sensor_type;location;lat;lon;timestamp;P1;durP1;ratioP1;P2;durP2;ratioP2
21168;SDS011;10742;51.816;8.662;2023-05-07T00:00:46;20.43;;;12.33;;
21168;SDS011;10742;51.816;8.662;2023-05-07T00:03:48;28.63;;;13.43;;
21168;SDS011;10742;51.816;8.662;2023-05-07T00:06:51;21.67;;;13.93;;
21168;SDS011;10742;51.816;8.662;2023-05-07T00:09:54;25.20;;;14.10;;
21168;SDS011;10742;51.816;8.662;2023-05-07T00:12:56;22.10;;;12.57;;
21168;SDS011;10742;51.816;8.662;2023-05-07T00:15:58;19.83;;;12.63;;
21168;SDS011;10742;51.816;8.662;2023-05-07T00:19:01;25.43;;;14.97;;
21168;SDS011;10742;51.816;8.662;2023-05-07T00:22:03;23.00;;;14.07;;
21168;SDS011;10742;51.816;8.662;2023-05-07T00:25:06;22.27;;;12.73;;
21168;SDS011;10742;51.816;8.662;2023-05-07T00:28:09;19.03;;;12.40;;
21168;SDS011;10742;51.816;8.662;2023-05-07T00:31:12;20.53;;;12.37;;
21168;SDS011;10742;51.816;8.662;2023-05-07T00:34:14;23.00;;;13.60;;
21168;SDS011;10742;51.816;8.662;2023-05-07T00:37:17;22.00;;;13.03;;
21168;SDS011;10742;51.816;8.662;2023-05-07T00:40:19;20.50;;;11.63;;
21168;SDS011;10742;51.816;8.662;2023-05-07T00:52:22;19.73;;;10.33;;
21168;SDS011;10742;51.816;8.662;2023-05-07T00:55:27;21.50;;;11.60;;
21168;SDS011;10742;51.816;8.662;2023-05-07T00:58:30;20.73;;;12.13;;
21168;SDS011;10742;51.816;8.662;2023-05-07T01:01:32;21.07;;;12.87;;
21168;SDS011;10742;51.816;8.662;2023-05-07T01:04:36;19.30;;;12.10;;
21168;SDS011;10742;51.816;8.662;2023-05-07T01:07:38;23.07;;;13.53;;
21168;SDS011;10742;51.816;8.662;2023-05-07T01:10:42;22.30;;;12.97;;
21168;SDS011;10742;51.816;8.662;2023-05-07T01:13:46;22.33;;;12.93;;
21168;SDS011;10742;51.816;8.662;2023-05-07T01:16:49;24.37;;;14.10;;
21168;SDS011;10742;51.816;8.662;2023-05-07T01:19:55;20.07;;;11.90;;
21168;SDS011;10742;51.816;8.662;2023-05-07T01:22:57;23.03;;;13.07;;
21168;SDS011;10742;51.816;8.662;2023-05-07T01:25:59;22.07;;;12.90;;
21168;SDS011;10742;51.816;8.662;2023-05-07T01:29:04;21.87;;;12.73;;
21168;SDS011;10742;51.816;8.662;2023-05-07T01:32:07;22.73;;;12.63;;
21168;SDS011;10742;51.816;8.662;2023-05-07T01:35:11;21.33;;;12.23;;
21168;SDS011;10742;51.816;8.662;2023-05-07T01:38:17;23.03;;;12.37;;
21168;SDS011;10742;51.816;8.662;2023-05-07T01:41:20;19.87;;;11.80;;
21168;SDS011;10742;51.816;8.662;2023-05-07T01:44:23;21.80;;;12.57;;
21168;SDS011;10742;51.816;8.662;2023-05-07T01:47:26;23.20;;;13.23;;
21168;SDS011;10742;51.816;8.662;2023-05-07T01:50:28;22.50;;;13.00;;
21168;SDS011;10742;51.816;8.662;2023-05-07T01:53:35;20.70;;;12.33;;
21168;SDS011;10742;51.816;8.662;2023-05-07T01:56:38;21.53;;;12.60;;
21168;SDS011;10742;51.816;8.662;2023-05-07T01:59:41;23.83;;;13.87;;
21168;SDS011;10742;51.816;8.662;2023-05-07T02:02:43;21.83;;;13.60;;
21168;SDS011;10742;51.816;8.662;2023-05-07T02:05:56;24.20;;;14.73;;
21168;SDS011;10742;51.816;8.662;2023-05-07T02:09:08;22.90;;;13.70;;
21168;SDS011;10742;51.816;8.662;2023-05-07T02:12:13;22.57;;;13.83;;
21168;SDS011;10742;51.816;8.662;2023-05-07T02:15:16;22.83;;;13.60;;
21168;SDS011;10742;51.816;8.662;2023-05-07T02:18:18;24.20;;;14.20;;
21168;SDS011;10742;51.816;8.662;2023-05-07T02:21:21;23.20;;;14.23;;
21168;SDS011;10742;51.816;8.662;2023-05-07T02:24:23;22.50;;;13.27;;
21168;SDS011;10742;51.816;8.662;2023-05-07T02:27:25;22.60;;;13.57;;
21168;SDS011;10742;51.816;8.662;2023-05-07T02:30:28;22.20;;;13.10;;
21168;SDS011;10742;51.816;8.662;2023-05-07T02:33:32;25.83;;;13.60;;
21168;SDS011;10742;51.816;8.662;2023-05-07T02:36:38;24.37;;;13.63;;
21168;SDS011;10742;51.816;8.662;2023-05-07T02:39:45;24.43;;;12.80;;
21168;SDS011;10742;51.816;8.662;2023-05-07T02:42:48;26.23;;;14.40;;
21168;SDS011;10742;51.816;8.662;2023-05-07T02:45:59;24.80;;;14.13;;
21168;SDS011;10742;51.816;8.662;2023-05-07T02:49:07;22.60;;;14.23;;
21168;SDS011;10742;51.816;8.662;2023-05-07T02:52:09;24.53;;;14.90;;
21168;SDS011;10742;51.816;8.662;2023-05-07T02:55:12;24.77;;;14.10;;
21168;SDS011;10742;51.816;8.662;2023-05-07T02:58:14;28.83;;;14.83;;
21168;SDS011;10742;51.816;8.662;2023-05-07T03:01:17;25.10;;;15.27;;
21168;SDS011;10742;51.816;8.662;2023-05-07T03:04:32;25.27;;;15.27;;
21168;SDS011;10742;51.816;8.662;2023-05-07T03:07:35;26.57;;;15.37;;
21168;SDS011;10742;51.816;8.662;2023-05-07T03:10:38;27.40;;;17.47;;
21168;SDS011;10742;51.816;8.662;2023-05-07T03:13:40;27.43;;;14.90;;
21168;SDS011;10742;51.816;8.662;2023-05-07T03:16:42;29.87;;;16.70;;
21168;SDS011;10742;51.816;8.662;2023-05-07T03:19:44;26.80;;;15.03;;
21168;SDS011;10742;51.816;8.662;2023-05-07T03:22:47;27.43;;;15.93;;
21168;SDS011;10742;51.816;8.662;2023-05-07T03:25:49;28.00;;;16.03;;
21168;SDS011;10742;51.816;8.662;2023-05-07T03:28:52;27.63;;;16.50;;
21168;SDS011;10742;51.816;8.662;2023-05-07T03:31:54;28.17;;;15.80;;
21168;SDS011;10742;51.816;8.662;2023-05-07T03:34:57;27.27;;;15.73;;
21168;SDS011;10742;51.816;8.662;2023-05-07T03:37:59;28.07;;;15.63;;
21168;SDS011;10742;51.816;8.662;2023-05-07T03:41:04;29.73;;;16.10;;
21168;SDS011;10742;51.816;8.662;2023-05-07T03:44:07;31.17;;;15.83;;
21168;SDS011;10742;51.816;8.662;2023-05-07T03:47:11;32.97;;;17.97;;
21168;SDS011;10742;51.816;8.662;2023-05-07T03:50:15;31.53;;;16.10;;
21168;SDS011;10742;51.816;8.662;2023-05-07T03:53:17;31.90;;;17.30;;
21168;SDS011;10742;51.816;8.662;2023-05-07T03:56:19;31.57;;;17.30;;
21168;SDS011;10742;51.816;8.662;2023-05-07T03:59:28;31.67;;;17.00;;
21168;SDS011;10742;51.816;8.662;2023-05-07T04:02:32;34.37;;;18.70;;
21168;SDS011;10742;51.816;8.662;2023-05-07T04:05:36;43.40;;;18.50;;
21168;SDS011;10742;51.816;8.662;2023-05-07T04:08:38;35.03;;;18.20;;
21168;SDS011;10742;51.816;8.662;2023-05-07T04:11:42;33.57;;;18.03;;
21168;SDS011;10742;51.816;8.662;2023-05-07T04:14:45;32.00;;;16.60;;
21168;SDS011;10742;51.816;8.662;2023-05-07T04:17:48;35.23;;;18.13;;
21168;SDS011;10742;51.816;8.662;2023-05-07T04:20:53;32.60;;;17.90;;
21168;SDS011;10742;51.816;8.662;2023-05-07T04:23:56;37.40;;;18.47;;
21168;SDS011;10742;51.816;8.662;2023-05-07T04:26:58;35.80;;;18.77;;
21168;SDS011;10742;51.816;8.662;2023-05-07T04:30:04;35.27;;;19.90;;
21168;SDS011;10742;51.816;8.662;2023-05-07T04:33:13;32.63;;;17.17;;
21168;SDS011;10742;51.816;8.662;2023-05-07T04:36:17;29.70;;;16.60;;
21168;SDS011;10742;51.816;8.662;2023-05-07T04:39:28;33.37;;;17.23;;
21168;SDS011;10742;51.816;8.662;2023-05-07T04:42:30;28.93;;;15.87;;
21168;SDS011;10742;51.816;8.662;2023-05-07T04:45:33;30.13;;;16.27;;
21168;SDS011;10742;51.816;8.662;2023-05-07T04:48:36;30.20;;;15.83;;
21168;SDS011;10742;51.816;8.662;2023-05-07T04:51:40;34.57;;;16.63;;
21168;SDS011;10742;51.816;8.662;2023-05-07T04:54:45;33.30;;;17.17;;
21168;SDS011;10742;51.816;8.662;2023-05-07T04:57:49;29.63;;;16.43;;
21168;SDS011;10742;51.816;8.662;2023-05-07T05:00:52;30.13;;;15.67;;
21168;SDS011;10742;51.816;8.662;2023-05-07T05:03:54;32.20;;;17.13;;
21168;SDS011;10742;51.816;8.662;2023-05-07T05:06:57;28.90;;;14.30;;
21168;SDS011;10742;51.816;8.662;2023-05-07T05:10:01;28.97;;;15.40;;
21168;SDS011;10742;51.816;8.662;2023-05-07T05:13:08;31.93;;;15.57;;
21168;SDS011;10742;51.816;8.662;2023-05-07T05:16:10;29.93;;;15.67;;
21168;SDS011;10742;51.816;8.662;2023-05-07T05:19:14;29.20;;;14.50;;
21168;SDS011;10742;51.816;8.662;2023-05-07T05:22:18;27.17;;;14.33;;
21168;SDS011;10742;51.816;8.662;2023-05-07T05:25:23;30.43;;;14.77;;
21168;SDS011;10742;51.816;8.662;2023-05-07T05:28:26;29.13;;;15.20;;
21168;SDS011;10742;51.816;8.662;2023-05-07T05:31:30;28.67;;;15.43;;
21168;SDS011;10742;51.816;8.662;2023-05-07T05:34:32;28.37;;;15.10;;
21168;SDS011;10742;51.816;8.662;2023-05-07T05:37:35;27.77;;;14.07;;
21168;SDS011;10742;51.816;8.662;2023-05-07T05:40:40;28.17;;;14.87;;
21168;SDS011;10742;51.816;8.662;2023-05-07T05:43:42;28.47;;;14.53;;
21168;SDS011;10742;51.816;8.662;2023-05-07T05:46:45;30.60;;;13.73;;
21168;SDS011;10742;51.816;8.662;2023-05-07T05:49:48;28.97;;;14.80;;
21168;SDS011;10742;51.816;8.662;2023-05-07T05:52:51;26.73;;;13.43;;
21168;SDS011;10742;51.816;8.662;2023-05-07T05:55:54;26.83;;;13.77;;
21168;SDS011;10742;51.816;8.662;2023-05-07T05:58:57;28.00;;;13.67;;
21168;SDS011;10742;51.816;8.662;2023-05-07T06:01:59;27.43;;;13.53;;
21168;SDS011;10742;51.816;8.662;2023-05-07T06:05:02;26.07;;;12.57;;
21168;SDS011;10742;51.816;8.662;2023-05-07T06:08:05;26.63;;;13.00;;
21168;SDS011;10742;51.816;8.662;2023-05-07T06:11:09;24.50;;;12.30;;
21168;SDS011;10742;51.816;8.662;2023-05-07T06:14:14;26.77;;;13.23;;
21168;SDS011;10742;51.816;8.662;2023-05-07T06:17:17;24.20;;;12.40;;
21168;SDS011;10742;51.816;8.662;2023-05-07T06:20:21;24.73;;;11.83;;
21168;SDS011;10742;51.816;8.662;2023-05-07T06:23:24;24.93;;;11.63;;
21168;SDS011;10742;51.816;8.662;2023-05-07T06:26:26;26.17;;;11.77;;
21168;SDS011;10742;51.816;8.662;2023-05-07T06:29:28;23.47;;;11.27;;
21168;SDS011;10742;51.816;8.662;2023-05-07T06:32:33;23.83;;;11.37;;
21168;SDS011;10742;51.816;8.662;2023-05-07T06:35:36;24.10;;;11.70;;
21168;SDS011;10742;51.816;8.662;2023-05-07T06:38:38;24.20;;;10.93;;
21168;SDS011;10742;51.816;8.662;2023-05-07T06:41:40;21.67;;;10.90;;
21168;SDS011;10742;51.816;8.662;2023-05-07T06:44:52;24.30;;;11.27;;
21168;SDS011;10742;51.816;8.662;2023-05-07T06:47:54;24.37;;;11.10;;
21168;SDS011;10742;51.816;8.662;2023-05-07T06:50:58;24.07;;;11.07;;
21168;SDS011;10742;51.816;8.662;2023-05-07T06:54:01;22.43;;;10.53;;
21168;SDS011;10742;51.816;8.662;2023-05-07T06:57:04;21.73;;;10.53;;
21168;SDS011;10742;51.816;8.662;2023-05-07T07:00:07;22.27;;;10.43;;
21168;SDS011;10742;51.816;8.662;2023-05-07T07:03:20;21.83;;;10.93;;
21168;SDS011;10742;51.816;8.662;2023-05-07T07:06:23;22.13;;;10.70;;
21168;SDS011;10742;51.816;8.662;2023-05-07T07:09:25;22.63;;;11.07;;
21168;SDS011;10742;51.816;8.662;2023-05-07T07:12:29;22.37;;;10.57;;
21168;SDS011;10742;51.816;8.662;2023-05-07T07:15:31;20.23;;;10.07;;
21168;SDS011;10742;51.816;8.662;2023-05-07T07:18:34;21.40;;;10.57;;
21168;SDS011;10742;51.816;8.662;2023-05-07T07:21:38;21.37;;;10.63;;
21168;SDS011;10742;51.816;8.662;2023-05-07T07:24:40;19.97;;;9.70;;
21168;SDS011;10742;51.816;8.662;2023-05-07T07:27:45;22.47;;;9.57;;
21168;SDS011;10742;51.816;8.662;2023-05-07T07:30:49;20.17;;;9.53;;
21168;SDS011;10742;51.816;8.662;2023-05-07T07:33:52;19.90;;;9.10;;
21168;SDS011;10742;51.816;8.662;2023-05-07T07:36:55;19.87;;;9.33;;
21168;SDS011;10742;51.816;8.662;2023-05-07T07:39:59;21.30;;;9.10;;
21168;SDS011;10742;51.816;8.662;2023-05-07T07:43:02;21.40;;;9.40;;
21168;SDS011;10742;51.816;8.662;2023-05-07T07:46:05;17.20;;;8.67;;
21168;SDS011;10742;51.816;8.662;2023-05-07T07:49:08;17.93;;;8.77;;
21168;SDS011;10742;51.816;8.662;2023-05-07T07:52:10;19.77;;;8.90;;
21168;SDS011;10742;51.816;8.662;2023-05-07T07:55:13;17.07;;;8.70;;
21168;SDS011;10742;51.816;8.662;2023-05-07T07:58:19;17.17;;;8.03;;
21168;SDS011;10742;51.816;8.662;2023-05-07T08:01:22;16.17;;;7.40;;
21168;SDS011;10742;51.816;8.662;2023-05-07T08:04:24;17.20;;;8.40;;
21168;SDS011;10742;51.816;8.662;2023-05-07T08:07:28;19.53;;;8.53;;
21168;SDS011;10742;51.816;8.662;2023-05-07T08:10:31;16.90;;;8.03;;
21168;SDS011;10742;51.816;8.662;2023-05-07T08:13:41;17.67;;;8.33;;
21168;SDS011;10742;51.816;8.662;2023-05-07T08:16:44;17.43;;;8.30;;
21168;SDS011;10742;51.816;8.662;2023-05-07T08:19:46;15.60;;;7.70;;
21168;SDS011;10742;51.816;8.662;2023-05-07T08:22:49;16.97;;;7.80;;
21168;SDS011;10742;51.816;8.662;2023-05-07T08:25:53;16.60;;;7.67;;
21168;SDS011;10742;51.816;8.662;2023-05-07T08:28:56;15.67;;;7.67;;
21168;SDS011;10742;51.816;8.662;2023-05-07T08:31:59;15.50;;;6.93;;
21168;SDS011;10742;51.816;8.662;2023-05-07T08:35:05;15.57;;;7.40;;
21168;SDS011;10742;51.816;8.662;2023-05-07T08:38:07;13.60;;;6.90;;
21168;SDS011;10742;51.816;8.662;2023-05-07T08:41:10;17.67;;;8.10;;
21168;SDS011;10742;51.816;8.662;2023-05-07T08:44:34;17.33;;;7.60;;
21168;SDS011;10742;51.816;8.662;2023-05-07T08:47:59;17.83;;;7.80;;
21168;SDS011;10742;51.816;8.662;2023-05-07T08:51:27;17.67;;;7.93;;
21168;SDS011;10742;51.816;8.662;2023-05-07T08:54:31;15.87;;;8.00;;
21168;SDS011;10742;51.816;8.662;2023-05-07T08:57:34;17.60;;;8.20;;
21168;SDS011;10742;51.816;8.662;2023-05-07T09:00:39;17.53;;;8.53;;
21168;SDS011;10742;51.816;8.662;2023-05-07T09:03:44;16.57;;;7.87;;
21168;SDS011;10742;51.816;8.662;2023-05-07T09:06:49;16.53;;;7.83;;
21168;SDS011;10742;51.816;8.662;2023-05-07T09:09:54;17.20;;;7.83;;
21168;SDS011;10742;51.816;8.662;2023-05-07T09:12:57;18.37;;;8.10;;
21168;SDS011;10742;51.816;8.662;2023-05-07T09:16:06;18.00;;;7.63;;
21168;SDS011;10742;51.816;8.662;2023-05-07T09:19:12;16.03;;;7.33;;
21168;SDS011;10742;51.816;8.662;2023-05-07T09:22:19;16.83;;;7.73;;
21168;SDS011;10742;51.816;8.662;2023-05-07T09:25:31;18.67;;;8.00;;
21168;SDS011;10742;51.816;8.662;2023-05-07T09:28:39;17.47;;;8.03;;
21168;SDS011;10742;51.816;8.662;2023-05-07T09:31:47;16.93;;;8.17;;
21168;SDS011;10742;51.816;8.662;2023-05-07T09:34:52;16.90;;;7.80;;
21168;SDS011;10742;51.816;8.662;2023-05-07T09:37:58;20.37;;;8.13;;
21168;SDS011;10742;51.816;8.662;2023-05-07T09:41:07;17.53;;;8.13;;
21168;SDS011;10742;51.816;8.662;2023-05-07T09:44:31;17.90;;;7.63;;
21168;SDS011;10742;51.816;8.662;2023-05-07T09:47:34;17.00;;;8.23;;
21168;SDS011;10742;51.816;8.662;2023-05-07T09:50:44;18.87;;;8.07;;
21168;SDS011;10742;51.816;8.662;2023-05-07T09:53:57;14.33;;;7.07;;
21168;SDS011;10742;51.816;8.662;2023-05-07T09:57:04;16.73;;;8.13;;
21168;SDS011;10742;51.816;8.662;2023-05-07T10:00:08;17.23;;;8.00;;
21168;SDS011;10742;51.816;8.662;2023-05-07T10:03:21;14.97;;;7.53;;
21168;SDS011;10742;51.816;8.662;2023-05-07T10:06:31;17.77;;;8.07;;
21168;SDS011;10742;51.816;8.662;2023-05-07T10:09:34;18.37;;;7.57;;
21168;SDS011;10742;51.816;8.662;2023-05-07T10:12:42;13.47;;;7.07;;
21168;SDS011;10742;51.816;8.662;2023-05-07T10:15:51;14.63;;;6.87;;
21168;SDS011;10742;51.816;8.662;2023-05-07T10:18:55;15.23;;;7.37;;
21168;SDS011;10742;51.816;8.662;2023-05-07T10:22:02;13.10;;;6.63;;
21168;SDS011;10742;51.816;8.662;2023-05-07T10:25:25;12.60;;;6.87;;
21168;SDS011;10742;51.816;8.662;2023-05-07T10:28:33;14.10;;;6.70;;
21168;SDS011;10742;51.816;8.662;2023-05-07T10:35:03;14.13;;;6.50;;
21168;SDS011;10742;51.816;8.662;2023-05-07T10:38:09;13.13;;;6.43;;
21168;SDS011;10742;51.816;8.662;2023-05-07T10:41:14;14.83;;;6.77;;
21168;SDS011;10742;51.816;8.662;2023-05-07T10:44:25;12.77;;;6.67;;
21168;SDS011;10742;51.816;8.662;2023-05-07T10:47:30;13.53;;;6.20;;
21168;SDS011;10742;51.816;8.662;2023-05-07T10:50:35;12.03;;;6.50;;
21168;SDS011;10742;51.816;8.662;2023-05-07T10:53:39;15.23;;;6.50;;
21168;SDS011;10742;51.816;8.662;2023-05-07T10:56:49;11.27;;;5.88;;
21168;SDS011;10742;51.816;8.662;2023-05-07T10:59:57;10.50;;;5.72;;
21168;SDS011;10742;51.816;8.662;2023-05-07T11:03:04;12.52;;;6.55;;
21168;SDS011;10742;51.816;8.662;2023-05-07T11:06:15;11.60;;;6.20;;
21168;SDS011;10742;51.816;8.662;2023-05-07T11:13:08;14.45;;;6.65;;
21168;SDS011;10742;51.816;8.662;2023-05-07T11:16:24;12.95;;;6.47;;
21168;SDS011;10742;51.816;8.662;2023-05-07T11:19:48;10.40;;;5.38;;
21168;SDS011;10742;51.816;8.662;2023-05-07T11:23:04;11.73;;;5.65;;
21168;SDS011;10742;51.816;8.662;2023-05-07T11:26:12;9.95;;;5.47;;
21168;SDS011;10742;51.816;8.662;2023-05-07T11:32:22;9.38;;;5.30;;
21168;SDS011;10742;51.816;8.662;2023-05-07T11:35:27;10.43;;;5.53;;
21168;SDS011;10742;51.816;8.662;2023-05-07T11:38:30;10.98;;;5.35;;
21168;SDS011;10742;51.816;8.662;2023-05-07T11:41:37;9.77;;;5.28;;
21168;SDS011;10742;51.816;8.662;2023-05-07T11:44:40;9.20;;;4.60;;
21168;SDS011;10742;51.816;8.662;2023-05-07T11:47:44;8.55;;;5.03;;
21168;SDS011;10742;51.816;8.662;2023-05-07T11:50:59;6.95;;;4.60;;
21168;SDS011;10742;51.816;8.662;2023-05-07T11:54:04;8.35;;;4.47;;
21168;SDS011;10742;51.816;8.662;2023-05-07T11:57:14;7.88;;;4.72;;
21168;SDS011;10742;51.816;8.662;2023-05-07T12:00:17;8.52;;;4.90;;
21168;SDS011;10742;51.816;8.662;2023-05-07T12:03:22;7.90;;;4.53;;
21168;SDS011;10742;51.816;8.662;2023-05-07T12:06:25;7.20;;;4.57;;
21168;SDS011;10742;51.816;8.662;2023-05-07T12:09:27;10.02;;;5.25;;
21168;SDS011;10742;51.816;8.662;2023-05-07T12:12:30;8.38;;;4.70;;
21168;SDS011;10742;51.816;8.662;2023-05-07T12:15:34;8.77;;;4.68;;
21168;SDS011;10742;51.816;8.662;2023-05-07T12:18:37;7.50;;;4.40;;
21168;SDS011;10742;51.816;8.662;2023-05-07T12:21:39;9.18;;;4.20;;
21168;SDS011;10742;51.816;8.662;2023-05-07T12:24:46;7.78;;;4.40;;
21168;SDS011;10742;51.816;8.662;2023-05-07T12:27:52;5.18;;;3.63;;
21168;SDS011;10742;51.816;8.662;2023-05-07T12:30:55;11.00;;;4.32;;
21168;SDS011;10742;51.816;8.662;2023-05-07T12:33:58;7.82;;;4.25;;
21168;SDS011;10742;51.816;8.662;2023-05-07T12:37:03;12.48;;;4.40;;
21168;SDS011;10742;51.816;8.662;2023-05-07T12:40:07;6.90;;;3.95;;
21168;SDS011;10742;51.816;8.662;2023-05-07T12:43:17;6.78;;;3.85;;
21168;SDS011;10742;51.816;8.662;2023-05-07T12:46:26;6.75;;;4.13;;
21168;SDS011;10742;51.816;8.662;2023-05-07T12:49:28;7.82;;;4.03;;
21168;SDS011;10742;51.816;8.662;2023-05-07T12:52:30;8.27;;;4.10;;
21168;SDS011;10742;51.816;8.662;2023-05-07T12:56:16;9.63;;;4.55;;
21168;SDS011;10742;51.816;8.662;2023-05-07T12:58:59;6.55;;;3.95;;
21168;SDS011;10742;51.816;8.662;2023-05-07T13:02:02;7.32;;;3.88;;
21168;SDS011;10742;51.816;8.662;2023-05-07T13:05:04;8.15;;;3.80;;
21168;SDS011;10742;51.816;8.662;2023-05-07T13:08:07;5.35;;;3.50;;
21168;SDS011;10742;51.816;8.662;2023-05-07T13:11:12;6.47;;;3.50;;
21168;SDS011;10742;51.816;8.662;2023-05-07T13:14:14;5.80;;;3.47;;
21168;SDS011;10742;51.816;8.662;2023-05-07T13:17:17;7.00;;;4.10;;
21168;SDS011;10742;51.816;8.662;2023-05-07T13:20:20;7.95;;;3.85;;
21168;SDS011;10742;51.816;8.662;2023-05-07T13:23:22;7.28;;;4.20;;
21168;SDS011;10742;51.816;8.662;2023-05-07T13:26:25;6.70;;;3.75;;
21168;SDS011;10742;51.816;8.662;2023-05-07T13:29:28;7.82;;;4.05;;
21168;SDS011;10742;51.816;8.662;2023-05-07T13:32:31;6.80;;;4.13;;
21168;SDS011;10742;51.816;8.662;2023-05-07T13:35:34;7.70;;;3.95;;
21168;SDS011;10742;51.816;8.662;2023-05-07T13:38:36;5.85;;;3.72;;
21168;SDS011;10742;51.816;8.662;2023-05-07T13:41:39;7.05;;;4.28;;
21168;SDS011;10742;51.816;8.662;2023-05-07T13:44:41;7.07;;;4.03;;
21168;SDS011;10742;51.816;8.662;2023-05-07T13:47:45;7.15;;;4.70;;
21168;SDS011;10742;51.816;8.662;2023-05-07T13:50:48;9.70;;;4.50;;
21168;SDS011;10742;51.816;8.662;2023-05-07T13:53:51;7.82;;;4.43;;
21168;SDS011;10742;51.816;8.662;2023-05-07T13:56:56;7.63;;;4.88;;
21168;SDS011;10742;51.816;8.662;2023-05-07T13:59:58;10.27;;;5.00;;
21168;SDS011;10742;51.816;8.662;2023-05-07T14:03:01;9.20;;;4.63;;
21168;SDS011;10742;51.816;8.662;2023-05-07T14:06:04;9.40;;;5.10;;
21168;SDS011;10742;51.816;8.662;2023-05-07T14:09:07;8.65;;;4.78;;
21168;SDS011;10742;51.816;8.662;2023-05-07T14:12:09;10.48;;;4.82;;
21168;SDS011;10742;51.816;8.662;2023-05-07T14:15:12;13.15;;;6.45;;
21168;SDS011;10742;51.816;8.662;2023-05-07T14:18:15;17.77;;;6.80;;
21168;SDS011;10742;51.816;8.662;2023-05-07T14:21:17;13.23;;;6.20;;
21168;SDS011;10742;51.816;8.662;2023-05-07T14:24:19;11.70;;;5.70;;
21168;SDS011;10742;51.816;8.662;2023-05-07T14:27:25;8.93;;;4.90;;
21168;SDS011;10742;51.816;8.662;2023-05-07T14:30:28;19.77;;;7.45;;
21168;SDS011;10742;51.816;8.662;2023-05-07T14:33:30;25.05;;;8.27;;
21168;SDS011;10742;51.816;8.662;2023-05-07T14:36:32;13.55;;;6.10;;
21168;SDS011;10742;51.816;8.662;2023-05-07T14:39:35;10.93;;;5.50;;
21168;SDS011;10742;51.816;8.662;2023-05-07T14:42:38;14.57;;;6.45;;
21168;SDS011;10742;51.816;8.662;2023-05-07T14:45:40;18.73;;;7.03;;
21168;SDS011;10742;51.816;8.662;2023-05-07T14:48:43;15.95;;;6.80;;
21168;SDS011;10742;51.816;8.662;2023-05-07T14:51:46;12.40;;;6.22;;
21168;SDS011;10742;51.816;8.662;2023-05-07T14:54:49;24.75;;;8.57;;
21168;SDS011;10742;51.816;8.662;2023-05-07T14:57:52;14.23;;;6.10;;
21168;SDS011;10742;51.816;8.662;2023-05-07T15:00:54;10.90;;;5.72;;
21168;SDS011;10742;51.816;8.662;2023-05-07T15:03:56;13.18;;;7.00;;
21168;SDS011;10742;51.816;8.662;2023-05-07T15:06:59;10.98;;;5.88;;
21168;SDS011;10742;51.816;8.662;2023-05-07T15:10:01;12.93;;;6.43;;
21168;SDS011;10742;51.816;8.662;2023-05-07T15:13:04;11.40;;;6.13;;
21168;SDS011;10742;51.816;8.662;2023-05-07T15:16:06;13.68;;;6.97;;
21168;SDS011;10742;51.816;8.662;2023-05-07T15:19:08;13.70;;;6.78;;
21168;SDS011;10742;51.816;8.662;2023-05-07T15:22:11;11.40;;;6.65;;
21168;SDS011;10742;51.816;8.662;2023-05-07T15:25:13;12.40;;;6.70;;
21168;SDS011;10742;51.816;8.662;2023-05-07T15:28:15;11.63;;;6.75;;
21168;SDS011;10742;51.816;8.662;2023-05-07T15:31:18;14.60;;;6.78;;
21168;SDS011;10742;51.816;8.662;2023-05-07T15:34:21;13.47;;;6.83;;
21168;SDS011;10742;51.816;8.662;2023-05-07T15:37:23;13.57;;;7.15;;
21168;SDS011;10742;51.816;8.662;2023-05-07T15:40:26;12.38;;;6.68;;
21168;SDS011;10742;51.816;8.662;2023-05-07T15:43:28;14.05;;;6.43;;
21168;SDS011;10742;51.816;8.662;2023-05-07T15:46:30;12.18;;;6.40;;
21168;SDS011;10742;51.816;8.662;2023-05-07T15:49:32;14.95;;;7.20;;
21168;SDS011;10742;51.816;8.662;2023-05-07T15:52:35;14.70;;;6.60;;
21168;SDS011;10742;51.816;8.662;2023-05-07T15:55:37;10.90;;;6.50;;
21168;SDS011;10742;51.816;8.662;2023-05-07T15:58:41;11.55;;;6.57;;
21168;SDS011;10742;51.816;8.662;2023-05-07T16:01:44;11.60;;;6.38;;
21168;SDS011;10742;51.816;8.662;2023-05-07T16:04:46;12.55;;;6.55;;
21168;SDS011;10742;51.816;8.662;2023-05-07T16:07:48;11.60;;;6.15;;
21168;SDS011;10742;51.816;8.662;2023-05-07T16:10:51;11.32;;;6.20;;
21168;SDS011;10742;51.816;8.662;2023-05-07T16:13:53;9.77;;;6.00;;
21168;SDS011;10742;51.816;8.662;2023-05-07T16:16:55;10.88;;;6.07;;
21168;SDS011;10742;51.816;8.662;2023-05-07T16:19:58;11.98;;;6.28;;
21168;SDS011;10742;51.816;8.662;2023-05-07T16:23:01;12.57;;;6.07;;
21168;SDS011;10742;51.816;8.662;2023-05-07T16:26:04;11.90;;;6.10;;
21168;SDS011;10742;51.816;8.662;2023-05-07T16:29:06;11.63;;;6.28;;
21168;SDS011;10742;51.816;8.662;2023-05-07T16:32:09;10.73;;;6.30;;
21168;SDS011;10742;51.816;8.662;2023-05-07T16:35:11;13.60;;;6.80;;
21168;SDS011;10742;51.816;8.662;2023-05-07T16:38:13;11.88;;;6.22;;
21168;SDS011;10742;51.816;8.662;2023-05-07T16:41:16;14.57;;;6.07;;
21168;SDS011;10742;51.816;8.662;2023-05-07T16:44:18;11.75;;;6.10;;
21168;SDS011;10742;51.816;8.662;2023-05-07T16:47:21;15.05;;;7.13;;
21168;SDS011;10742;51.816;8.662;2023-05-07T16:50:23;10.90;;;5.82;;
21168;SDS011;10742;51.816;8.662;2023-05-07T16:53:25;9.63;;;5.47;;
21168;SDS011;10742;51.816;8.662;2023-05-07T16:56:27;12.35;;;6.10;;
21168;SDS011;10742;51.816;8.662;2023-05-07T16:59:30;9.55;;;5.90;;
21168;SDS011;10742;51.816;8.662;2023-05-07T17:02:34;10.50;;;5.72;;
21168;SDS011;10742;51.816;8.662;2023-05-07T17:05:36;11.27;;;6.03;;
21168;SDS011;10742;51.816;8.662;2023-05-07T17:08:42;8.60;;;5.10;;
21168;SDS011;10742;51.816;8.662;2023-05-07T17:11:45;12.10;;;6.57;;
21168;SDS011;10742;51.816;8.662;2023-05-07T17:14:47;10.67;;;5.60;;
21168;SDS011;10742;51.816;8.662;2023-05-07T17:17:49;12.17;;;6.17;;
21168;SDS011;10742;51.816;8.662;2023-05-07T17:20:52;11.60;;;6.40;;
21168;SDS011;10742;51.816;8.662;2023-05-07T17:23:54;12.23;;;6.40;;
21168;SDS011;10742;51.816;8.662;2023-05-07T17:26:56;12.07;;;5.97;;
21168;SDS011;10742;51.816;8.662;2023-05-07T17:29:58;12.17;;;6.47;;
21168;SDS011;10742;51.816;8.662;2023-05-07T17:33:01;11.57;;;6.17;;
21168;SDS011;10742;51.816;8.662;2023-05-07T17:36:10;10.60;;;5.90;;
21168;SDS011;10742;51.816;8.662;2023-05-07T17:39:12;10.87;;;5.80;;
21168;SDS011;10742;51.816;8.662;2023-05-07T17:42:14;14.73;;;6.50;;
21168;SDS011;10742;51.816;8.662;2023-05-07T17:45:17;11.77;;;6.20;;
21168;SDS011;10742;51.816;8.662;2023-05-07T17:48:19;12.87;;;6.37;;
21168;SDS011;10742;51.816;8.662;2023-05-07T17:51:21;10.07;;;6.00;;
21168;SDS011;10742;51.816;8.662;2023-05-07T17:54:24;12.80;;;6.10;;
21168;SDS011;10742;51.816;8.662;2023-05-07T17:57:27;12.60;;;6.10;;
21168;SDS011;10742;51.816;8.662;2023-05-07T18:00:29;12.37;;;6.57;;
21168;SDS011;10742;51.816;8.662;2023-05-07T18:03:32;12.10;;;6.57;;
21168;SDS011;10742;51.816;8.662;2023-05-07T18:06:35;10.27;;;5.97;;
21168;SDS011;10742;51.816;8.662;2023-05-07T18:09:37;11.03;;;6.20;;
21168;SDS011;10742;51.816;8.662;2023-05-07T18:12:39;12.30;;;6.53;;
21168;SDS011;10742;51.816;8.662;2023-05-07T18:15:43;12.10;;;6.60;;
21168;SDS011;10742;51.816;8.662;2023-05-07T18:18:46;11.10;;;5.87;;
21168;SDS011;10742;51.816;8.662;2023-05-07T18:21:49;12.70;;;6.30;;
21168;SDS011;10742;51.816;8.662;2023-05-07T18:24:51;14.20;;;6.57;;
21168;SDS011;10742;51.816;8.662;2023-05-07T18:27:54;9.47;;;5.63;;